sensor_id;sensor_type;location;lat;lon;timestamp;temperature;humidity
17697;DHT22;8967;47.984;7.842;2023-05-17T00:02:27;9.70;99.90
17697;DHT22;8967;47.984;7.842;2023-05-17T00:04:54;9.70;99.90
17697;DHT22;8967;47.984;7.842;2023-05-17T00:07:21;9.70;99.90
17697;DHT22;8967;47.984;7.842;2023-05-17T00:09:49;9.70;99.90
17697;DHT22;8967;47.984;7.842;2023-05-17T00:12:16;9.70;99.90
17697;DHT22;8967;47.984;7.842;2023-05-17T00:14:43;9.70;99.90
17697;DHT22;8967;47.984;7.842;2023-05-17T00:17:10;9.70;99.90
17697;DHT22;8967;47.984;7.842;2023-05-17T00:19:37;9.70;99.90
17697;DHT22;8967;47.984;7.842;2023-05-17T00:22:04;9.70;99.90
17697;DHT22;8967;47.984;7.842;2023-05-17T00:24:33;9.60;99.90
17697;DHT22;8967;47.984;7.842;2023-05-17T00:27:01;9.70;99.90
17697;DHT22;8967;47.984;7.842;2023-05-17T00:29:28;9.50;99.90
17697;DHT22;8967;47.984;7.842;2023-05-17T00:31:55;9.50;99.90
17697;DHT22;8967;47.984;7.842;2023-05-17T00:34:22;9.50;99.90
17697;DHT22;8967;47.984;7.842;2023-05-17T00:36:49;9.50;99.90
17697;DHT22;8967;47.984;7.842;2023-05-17T00:39:15;9.50;99.90
17697;DHT22;8967;47.984;7.842;2023-05-17T00:41:42;9.40;99.90
17697;DHT22;8967;47.984;7.842;2023-05-17T00:44:11;9.40;99.90
17697;DHT22;8967;47.984;7.842;2023-05-17T00:46:38;9.40;99.90
17697;DHT22;8967;47.984;7.842;2023-05-17T00:49:07;9.40;99.90
17697;DHT22;8967;47.984;7.842;2023-05-17T00:51:34;9.40;99.90
17697;DHT22;8967;47.984;7.842;2023-05-17T00:54:04;9.40;99.90
17697;DHT22;8967;47.984;7.842;2023-05-17T00:56:31;9.40;99.90
17697;DHT22;8967;47.984;7.842;2023-05-17T00:59:01;9.40;99.90
17697;DHT22;8967;47.984;7.842;2023-05-17T01:01:30;9.30;99.90
17697;DHT22;8967;47.984;7.842;2023-05-17T01:03:58;9.30;99.90
17697;DHT22;8967;47.984;7.842;2023-05-17T01:06:27;9.30;99.90
17697;DHT22;8967;47.984;7.842;2023-05-17T01:08:54;9.20;99.90
17697;DHT22;8967;47.984;7.842;2023-05-17T01:11:28;9.20;99.90
17697;DHT22;8967;47.984;7.842;2023-05-17T01:14:04;9.20;99.90
17697;DHT22;8967;47.984;7.842;2023-05-17T01:16:39;9.20;99.90
17697;DHT22;8967;47.984;7.842;2023-05-17T01:19:13;9.20;99.90
17697;DHT22;8967;47.984;7.842;2023-05-17T01:21:57;9.10;99.90
17697;DHT22;8967;47.984;7.842;2023-05-17T01:24:35;9.10;99.90
17697;DHT22;8967;47.984;7.842;2023-05-17T01:27:08;9.10;99.90
17697;DHT22;8967;47.984;7.842;2023-05-17T01:29:37;9.00;99.90
17697;DHT22;8967;47.984;7.842;2023-05-17T01:32:05;9.10;99.90
17697;DHT22;8967;47.984;7.842;2023-05-17T01:34:36;9.00;99.90
17697;DHT22;8967;47.984;7.842;2023-05-17T01:37:03;9.00;99.90
17697;DHT22;8967;47.984;7.842;2023-05-17T01:39:30;8.90;99.90
17697;DHT22;8967;47.984;7.842;2023-05-17T01:42:02;8.90;99.90
17697;DHT22;8967;47.984;7.842;2023-05-17T01:44:36;8.90;99.90
17697;DHT22;8967;47.984;7.842;2023-05-17T01:47:11;8.90;99.90
17697;DHT22;8967;47.984;7.842;2023-05-17T01:49:40;8.90;99.90
17697;DHT22;8967;47.984;7.842;2023-05-17T01:52:17;8.80;99.90
17697;DHT22;8967;47.984;7.842;2023-05-17T01:54:47;8.80;99.90
17697;DHT22;8967;47.984;7.842;2023-05-17T01:57:18;8.80;99.90
17697;DHT22;8967;47.984;7.842;2023-05-17T01:59:48;8.80;99.90
17697;DHT22;8967;47.984;7.842;2023-05-17T02:02:16;8.80;99.90
17697;DHT22;8967;47.984;7.842;2023-05-17T02:04:43;8.80;99.90
17697;DHT22;8967;47.984;7.842;2023-05-17T02:07:10;8.80;99.90
17697;DHT22;8967;47.984;7.842;2023-05-17T02:09:36;8.70;99.90
17697;DHT22;8967;47.984;7.842;2023-05-17T02:12:04;8.70;99.90
17697;DHT22;8967;47.984;7.842;2023-05-17T02:14:33;8.70;99.90
17697;DHT22;8967;47.984;7.842;2023-05-17T02:17:01;8.70;99.90
17697;DHT22;8967;47.984;7.842;2023-05-17T02:19:30;8.70;99.90
17697;DHT22;8967;47.984;7.842;2023-05-17T02:21:57;8.70;99.90
17697;DHT22;8967;47.984;7.842;2023-05-17T02:24:28;8.70;99.90
17697;DHT22;8967;47.984;7.842;2023-05-17T02:26:55;8.60;99.90
17697;DHT22;8967;47.984;7.842;2023-05-17T02:29:23;8.60;99.90
17697;DHT22;8967;47.984;7.842;2023-05-17T02:31:51;8.50;99.90
17697;DHT22;8967;47.984;7.842;2023-05-17T02:34:21;8.50;99.90
17697;DHT22;8967;47.984;7.842;2023-05-17T02:36:49;8.60;99.90
17697;DHT22;8967;47.984;7.842;2023-05-17T02:39:16;8.60;99.90
17697;DHT22;8967;47.984;7.842;2023-05-17T02:41:43;8.50;99.90
17697;DHT22;8967;47.984;7.842;2023-05-17T02:44:10;8.50;99.90
17697;DHT22;8967;47.984;7.842;2023-05-17T02:46:37;8.60;99.90
17697;DHT22;8967;47.984;7.842;2023-05-17T02:49:04;8.60;99.90
17697;DHT22;8967;47.984;7.842;2023-05-17T02:51:32;8.60;99.90
17697;DHT22;8967;47.984;7.842;2023-05-17T02:54:00;8.60;99.90
17697;DHT22;8967;47.984;7.842;2023-05-17T02:56:27;8.60;99.90
17697;DHT22;8967;47.984;7.842;2023-05-17T02:58:54;8.70;99.90
17697;DHT22;8967;47.984;7.842;2023-05-17T03:01:22;8.60;99.90
17697;DHT22;8967;47.984;7.842;2023-05-17T03:03:50;8.70;99.90
17697;DHT22;8967;47.984;7.842;2023-05-17T03:06:17;8.60;99.90
17697;DHT22;8967;47.984;7.842;2023-05-17T03:08:45;8.70;99.90
17697;DHT22;8967;47.984;7.842;2023-05-17T03:11:12;8.70;99.90
17697;DHT22;8967;47.984;7.842;2023-05-17T03:13:39;8.60;99.90
17697;DHT22;8967;47.984;7.842;2023-05-17T03:16:06;8.60;99.90
17697;DHT22;8967;47.984;7.842;2023-05-17T03:18:34;8.60;99.90
17697;DHT22;8967;47.984;7.842;2023-05-17T03:21:03;8.60;99.90
17697;DHT22;8967;47.984;7.842;2023-05-17T03:23:31;8.50;99.90
17697;DHT22;8967;47.984;7.842;2023-05-17T03:26:01;8.50;99.90
17697;DHT22;8967;47.984;7.842;2023-05-17T03:28:32;8.40;99.90
17697;DHT22;8967;47.984;7.842;2023-05-17T03:30:59;8.40;99.90
17697;DHT22;8967;47.984;7.842;2023-05-17T03:33:32;8.40;99.90
17697;DHT22;8967;47.984;7.842;2023-05-17T03:35:59;8.30;99.90
17697;DHT22;8967;47.984;7.842;2023-05-17T03:38:27;8.30;99.90
17697;DHT22;8967;47.984;7.842;2023-05-17T03:40:54;8.40;99.90
17697;DHT22;8967;47.984;7.842;2023-05-17T03:43:22;8.40;99.90
17697;DHT22;8967;47.984;7.842;2023-05-17T03:45:50;8.40;99.90
17697;DHT22;8967;47.984;7.842;2023-05-17T03:48:17;8.40;99.90
17697;DHT22;8967;47.984;7.842;2023-05-17T03:50:46;8.40;99.90
17697;DHT22;8967;47.984;7.842;2023-05-17T03:53:13;8.50;99.90
17697;DHT22;8967;47.984;7.842;2023-05-17T03:55:43;8.50;99.90
17697;DHT22;8967;47.984;7.842;2023-05-17T03:58:10;8.40;99.90
17697;DHT22;8967;47.984;7.842;2023-05-17T04:00:40;8.40;99.90
17697;DHT22;8967;47.984;7.842;2023-05-17T04:03:12;8.40;99.90
17697;DHT22;8967;47.984;7.842;2023-05-17T04:05:39;8.40;99.90
17697;DHT22;8967;47.984;7.842;2023-05-17T04:08:07;8.40;99.90
17697;DHT22;8967;47.984;7.842;2023-05-17T04:10:34;8.40;99.90
17697;DHT22;8967;47.984;7.842;2023-05-17T04:13:03;8.40;99.90
17697;DHT22;8967;47.984;7.842;2023-05-17T04:15:30;8.40;99.90
17697;DHT22;8967;47.984;7.842;2023-05-17T04:17:59;8.40;99.90
17697;DHT22;8967;47.984;7.842;2023-05-17T04:20:25;8.40;99.90
17697;DHT22;8967;47.984;7.842;2023-05-17T04:22:53;8.40;99.90
17697;DHT22;8967;47.984;7.842;2023-05-17T04:25:20;8.50;99.90
17697;DHT22;8967;47.984;7.842;2023-05-17T04:27:48;8.50;99.90
17697;DHT22;8967;47.984;7.842;2023-05-17T04:30:16;8.50;99.90
17697;DHT22;8967;47.984;7.842;2023-05-17T04:32:45;8.50;99.90
17697;DHT22;8967;47.984;7.842;2023-05-17T04:35:14;8.60;99.90
17697;DHT22;8967;47.984;7.842;2023-05-17T04:37:45;8.60;99.90
17697;DHT22;8967;47.984;7.842;2023-05-17T04:40:19;8.60;99.90
17697;DHT22;8967;47.984;7.842;2023-05-17T04:42:47;8.60;99.90
17697;DHT22;8967;47.984;7.842;2023-05-17T04:45:17;8.60;99.90
17697;DHT22;8967;47.984;7.842;2023-05-17T04:47:44;8.60;99.90
17697;DHT22;8967;47.984;7.842;2023-05-17T04:50:15;8.60;99.90
17697;DHT22;8967;47.984;7.842;2023-05-17T04:52:45;8.60;99.90
17697;DHT22;8967;47.984;7.842;2023-05-17T04:55:16;8.70;99.90
17697;DHT22;8967;47.984;7.842;2023-05-17T04:57:44;8.70;99.90
17697;DHT22;8967;47.984;7.842;2023-05-17T05:00:14;8.70;99.90
17697;DHT22;8967;47.984;7.842;2023-05-17T05:02:46;8.70;99.90
17697;DHT22;8967;47.984;7.842;2023-05-17T05:05:14;8.80;99.90
17697;DHT22;8967;47.984;7.842;2023-05-17T05:07:43;8.80;99.90
17697;DHT22;8967;47.984;7.842;2023-05-17T05:10:11;8.80;99.90
17697;DHT22;8967;47.984;7.842;2023-05-17T05:12:38;8.90;99.90
17697;DHT22;8967;47.984;7.842;2023-05-17T05:15:09;8.90;99.90
17697;DHT22;8967;47.984;7.842;2023-05-17T05:17:38;8.90;99.90
17697;DHT22;8967;47.984;7.842;2023-05-17T05:20:06;9.00;99.90
17697;DHT22;8967;47.984;7.842;2023-05-17T05:22:35;9.00;99.90
17697;DHT22;8967;47.984;7.842;2023-05-17T05:25:03;9.00;99.90
17697;DHT22;8967;47.984;7.842;2023-05-17T05:27:32;9.00;99.90
17697;DHT22;8967;47.984;7.842;2023-05-17T05:30:00;9.10;99.90
17697;DHT22;8967;47.984;7.842;2023-05-17T05:32:30;9.10;99.90
17697;DHT22;8967;47.984;7.842;2023-05-17T05:34:57;9.20;99.90
17697;DHT22;8967;47.984;7.842;2023-05-17T05:37:24;9.20;99.90
17697;DHT22;8967;47.984;7.842;2023-05-17T05:39:53;9.20;99.90
17697;DHT22;8967;47.984;7.842;2023-05-17T05:42:20;9.20;99.90
17697;DHT22;8967;47.984;7.842;2023-05-17T05:44:47;9.20;99.90
17697;DHT22;8967;47.984;7.842;2023-05-17T05:47:16;9.20;99.90
17697;DHT22;8967;47.984;7.842;2023-05-17T05:49:43;9.30;99.90
17697;DHT22;8967;47.984;7.842;2023-05-17T05:52:10;9.30;99.90
17697;DHT22;8967;47.984;7.842;2023-05-17T05:54:40;9.30;99.90
17697;DHT22;8967;47.984;7.842;2023-05-17T05:57:09;9.40;99.90
17697;DHT22;8967;47.984;7.842;2023-05-17T05:59:36;9.40;99.90
17697;DHT22;8967;47.984;7.842;2023-05-17T06:02:05;9.40;99.90
17697;DHT22;8967;47.984;7.842;2023-05-17T06:04:33;9.50;99.90
17697;DHT22;8967;47.984;7.842;2023-05-17T06:07:00;9.50;99.90
17697;DHT22;8967;47.984;7.842;2023-05-17T06:09:26;9.60;99.90
17697;DHT22;8967;47.984;7.842;2023-05-17T06:11:56;9.60;99.90
17697;DHT22;8967;47.984;7.842;2023-05-17T06:14:24;9.70;99.90
17697;DHT22;8967;47.984;7.842;2023-05-17T06:16:51;9.70;99.90
17697;DHT22;8967;47.984;7.842;2023-05-17T06:19:18;9.70;99.90
17697;DHT22;8967;47.984;7.842;2023-05-17T06:21:45;9.70;99.90
17697;DHT22;8967;47.984;7.842;2023-05-17T06:24:12;9.80;99.90
17697;DHT22;8967;47.984;7.842;2023-05-17T06:26:39;9.80;99.90
17697;DHT22;8967;47.984;7.842;2023-05-17T06:29:06;9.90;99.90
17697;DHT22;8967;47.984;7.842;2023-05-17T06:31:34;9.90;99.90
17697;DHT22;8967;47.984;7.842;2023-05-17T06:34:04;9.90;99.90
17697;DHT22;8967;47.984;7.842;2023-05-17T06:36:30;10.00;99.90
17697;DHT22;8967;47.984;7.842;2023-05-17T06:39:00;10.10;99.90
17697;DHT22;8967;47.984;7.842;2023-05-17T06:41:27;10.10;99.90
17697;DHT22;8967;47.984;7.842;2023-05-17T06:43:53;10.10;99.90
17697;DHT22;8967;47.984;7.842;2023-05-17T06:46:20;10.20;99.90
17697;DHT22;8967;47.984;7.842;2023-05-17T06:48:48;10.20;99.90
17697;DHT22;8967;47.984;7.842;2023-05-17T06:51:18;10.30;99.90
17697;DHT22;8967;47.984;7.842;2023-05-17T06:53:45;10.30;99.90
17697;DHT22;8967;47.984;7.842;2023-05-17T06:56:14;10.40;99.90
17697;DHT22;8967;47.984;7.842;2023-05-17T06:58:41;10.40;99.90
17697;DHT22;8967;47.984;7.842;2023-05-17T07:01:08;10.50;99.90
17697;DHT22;8967;47.984;7.842;2023-05-17T07:03:35;10.50;99.90
17697;DHT22;8967;47.984;7.842;2023-05-17T07:06:04;10.50;99.90
17697;DHT22;8967;47.984;7.842;2023-05-17T07:08:31;10.60;99.90
17697;DHT22;8967;47.984;7.842;2023-05-17T07:10:58;10.70;99.90
17697;DHT22;8967;47.984;7.842;2023-05-17T07:13:25;10.70;99.90
17697;DHT22;8967;47.984;7.842;2023-05-17T07:15:54;10.70;99.90
17697;DHT22;8967;47.984;7.842;2023-05-17T07:18:21;10.80;99.90
17697;DHT22;8967;47.984;7.842;2023-05-17T07:20:48;10.80;99.90
17697;DHT22;8967;47.984;7.842;2023-05-17T07:23:16;10.80;99.90
17697;DHT22;8967;47.984;7.842;2023-05-17T07:25:46;10.90;99.90
17697;DHT22;8967;47.984;7.842;2023-05-17T07:28:13;10.90;99.90
17697;DHT22;8967;47.984;7.842;2023-05-17T07:30:42;11.00;99.90
17697;DHT22;8967;47.984;7.842;2023-05-17T07:33:09;11.00;99.90
17697;DHT22;8967;47.984;7.842;2023-05-17T07:35:36;11.00;99.90
17697;DHT22;8967;47.984;7.842;2023-05-17T07:38:02;11.10;99.90
17697;DHT22;8967;47.984;7.842;2023-05-17T07:40:31;11.00;99.90
17697;DHT22;8967;47.984;7.842;2023-05-17T07:42:58;11.10;99.90
17697;DHT22;8967;47.984;7.842;2023-05-17T07:45:24;11.10;98.80
17697;DHT22;8967;47.984;7.842;2023-05-17T07:47:51;11.20;98.30
17697;DHT22;8967;47.984;7.842;2023-05-17T07:50:18;11.20;98.40
17697;DHT22;8967;47.984;7.842;2023-05-17T07:52:45;11.20;97.80
17697;DHT22;8967;47.984;7.842;2023-05-17T07:55:12;11.30;97.80
17697;DHT22;8967;47.984;7.842;2023-05-17T07:57:41;11.30;97.50
17697;DHT22;8967;47.984;7.842;2023-05-17T08:00:09;11.30;96.60
17697;DHT22;8967;47.984;7.842;2023-05-17T08:02:39;11.40;96.70
17697;DHT22;8967;47.984;7.842;2023-05-17T08:05:07;11.40;96.80
17697;DHT22;8967;47.984;7.842;2023-05-17T08:07:34;11.50;96.60
17697;DHT22;8967;47.984;7.842;2023-05-17T08:10:01;11.50;95.10
17697;DHT22;8967;47.984;7.842;2023-05-17T08:12:28;11.60;94.40
17697;DHT22;8967;47.984;7.842;2023-05-17T08:14:56;11.60;95.00
17697;DHT22;8967;47.984;7.842;2023-05-17T08:17:23;11.70;94.60
17697;DHT22;8967;47.984;7.842;2023-05-17T08:19:50;11.80;95.30
17697;DHT22;8967;47.984;7.842;2023-05-17T08:22:17;11.90;94.50
17697;DHT22;8967;47.984;7.842;2023-05-17T08:24:44;12.00;93.80
17697;DHT22;8967;47.984;7.842;2023-05-17T08:27:11;12.00;93.80
17697;DHT22;8967;47.984;7.842;2023-05-17T08:29:38;12.00;94.20
17697;DHT22;8967;47.984;7.842;2023-05-17T08:32:07;12.10;93.30
17697;DHT22;8967;47.984;7.842;2023-05-17T08:34:34;12.10;92.80
17697;DHT22;8967;47.984;7.842;2023-05-17T08:37:01;12.10;93.40
17697;DHT22;8967;47.984;7.842;2023-05-17T08:39:28;12.20;93.00
17697;DHT22;8967;47.984;7.842;2023-05-17T08:41:56;12.20;93.10
17697;DHT22;8967;47.984;7.842;2023-05-17T08:44:25;12.20;93.40
17697;DHT22;8967;47.984;7.842;2023-05-17T08:46:54;12.20;93.50
17697;DHT22;8967;47.984;7.842;2023-05-17T08:49:29;12.30;93.60
17697;DHT22;8967;47.984;7.842;2023-05-17T08:51:59;12.30;93.40
17697;DHT22;8967;47.984;7.842;2023-05-17T08:54:26;12.30;93.00
17697;DHT22;8967;47.984;7.842;2023-05-17T08:56:57;12.30;92.40
17697;DHT22;8967;47.984;7.842;2023-05-17T08:59:27;12.30;91.20
17697;DHT22;8967;47.984;7.842;2023-05-17T09:01:58;12.30;91.80
17697;DHT22;8967;47.984;7.842;2023-05-17T09:04:28;12.40;92.00
17697;DHT22;8967;47.984;7.842;2023-05-17T09:06:55;12.40;91.70
17697;DHT22;8967;47.984;7.842;2023-05-17T09:09:22;12.50;92.10
17697;DHT22;8967;47.984;7.842;2023-05-17T09:11:49;12.60;91.00
17697;DHT22;8967;47.984;7.842;2023-05-17T09:14:16;12.60;91.00
17697;DHT22;8967;47.984;7.842;2023-05-17T09:16:43;12.60;91.30
17697;DHT22;8967;47.984;7.842;2023-05-17T09:19:15;12.70;90.60
17697;DHT22;8967;47.984;7.842;2023-05-17T09:21:46;12.80;89.60
17697;DHT22;8967;47.984;7.842;2023-05-17T09:24:13;12.80;90.10
17697;DHT22;8967;47.984;7.842;2023-05-17T09:26:42;12.80;86.50
17697;DHT22;8967;47.984;7.842;2023-05-17T09:29:10;12.80;88.40
17697;DHT22;8967;47.984;7.842;2023-05-17T09:31:37;12.80;87.50
17697;DHT22;8967;47.984;7.842;2023-05-17T09:34:04;12.80;87.80
17697;DHT22;8967;47.984;7.842;2023-05-17T09:36:31;12.80;86.70
17697;DHT22;8967;47.984;7.842;2023-05-17T09:39:00;12.80;86.80
17697;DHT22;8967;47.984;7.842;2023-05-17T09:41:31;12.80;86.90
17697;DHT22;8967;47.984;7.842;2023-05-17T09:43:59;12.80;84.80
17697;DHT22;8967;47.984;7.842;2023-05-17T09:46:32;12.80;84.60
17697;DHT22;8967;47.984;7.842;2023-05-17T09:49:01;12.80;86.40
17697;DHT22;8967;47.984;7.842;2023-05-17T09:51:32;12.80;86.10
17697;DHT22;8967;47.984;7.842;2023-05-17T09:54:00;12.80;86.10
17697;DHT22;8967;47.984;7.842;2023-05-17T09:56:28;12.90;85.20
17697;DHT22;8967;47.984;7.842;2023-05-17T09:58:56;12.90;86.10
17697;DHT22;8967;47.984;7.842;2023-05-17T10:01:25;13.00;86.00
17697;DHT22;8967;47.984;7.842;2023-05-17T10:03:54;13.00;83.30
17697;DHT22;8967;47.984;7.842;2023-05-17T10:06:25;13.10;83.40
17697;DHT22;8967;47.984;7.842;2023-05-17T10:08:55;13.10;84.00
17697;DHT22;8967;47.984;7.842;2023-05-17T10:11:26;13.10;83.70
17697;DHT22;8967;47.984;7.842;2023-05-17T10:14:04;13.10;83.60
17697;DHT22;8967;47.984;7.842;2023-05-17T10:16:33;13.10;84.50
17697;DHT22;8967;47.984;7.842;2023-05-17T10:19:04;13.10;85.20
17697;DHT22;8967;47.984;7.842;2023-05-17T10:21:31;13.20;84.10
17697;DHT22;8967;47.984;7.842;2023-05-17T10:23:59;13.20;84.80
17697;DHT22;8967;47.984;7.842;2023-05-17T10:26:29;13.20;83.60
17697;DHT22;8967;47.984;7.842;2023-05-17T10:28:57;13.20;80.40
17697;DHT22;8967;47.984;7.842;2023-05-17T10:31:28;13.20;81.50
17697;DHT22;8967;47.984;7.842;2023-05-17T10:33:56;13.20;79.40
17697;DHT22;8967;47.984;7.842;2023-05-17T10:36:24;13.30;80.90
17697;DHT22;8967;47.984;7.842;2023-05-17T10:38:51;13.30;79.60
17697;DHT22;8967;47.984;7.842;2023-05-17T10:41:20;13.30;80.30
17697;DHT22;8967;47.984;7.842;2023-05-17T10:43:50;13.30;81.40
17697;DHT22;8967;47.984;7.842;2023-05-17T10:46:20;13.40;81.90
17697;DHT22;8967;47.984;7.842;2023-05-17T10:48:50;13.40;80.30
17697;DHT22;8967;47.984;7.842;2023-05-17T10:51:21;13.50;80.50
17697;DHT22;8967;47.984;7.842;2023-05-17T10:54:07;13.50;80.20
17697;DHT22;8967;47.984;7.842;2023-05-17T10:56:38;13.50;80.20
17697;DHT22;8967;47.984;7.842;2023-05-17T10:59:17;13.60;78.50
17697;DHT22;8967;47.984;7.842;2023-05-17T11:01:58;13.60;77.30
17697;DHT22;8967;47.984;7.842;2023-05-17T11:04:30;13.60;78.20
17697;DHT22;8967;47.984;7.842;2023-05-17T11:07:25;13.60;76.80
17697;DHT22;8967;47.984;7.842;2023-05-17T11:09:54;13.60;77.90
17697;DHT22;8967;47.984;7.842;2023-05-17T11:12:29;13.60;77.90
17697;DHT22;8967;47.984;7.842;2023-05-17T11:14:58;13.60;78.10
17697;DHT22;8967;47.984;7.842;2023-05-17T11:17:34;13.70;78.20
17697;DHT22;8967;47.984;7.842;2023-05-17T11:20:06;13.70;78.70
17697;DHT22;8967;47.984;7.842;2023-05-17T11:22:38;13.70;78.60
17697;DHT22;8967;47.984;7.842;2023-05-17T11:25:08;13.80;78.20
17697;DHT22;8967;47.984;7.842;2023-05-17T11:27:43;13.80;76.10
17697;DHT22;8967;47.984;7.842;2023-05-17T11:30:20;13.90;75.60
17697;DHT22;8967;47.984;7.842;2023-05-17T11:32:51;13.80;75.80
17697;DHT22;8967;47.984;7.842;2023-05-17T11:35:22;13.80;76.40
17697;DHT22;8967;47.984;7.842;2023-05-17T11:37:51;13.90;75.50
17697;DHT22;8967;47.984;7.842;2023-05-17T11:40:25;13.90;76.10
17697;DHT22;8967;47.984;7.842;2023-05-17T11:43:11;14.00;74.60
17697;DHT22;8967;47.984;7.842;2023-05-17T11:45:43;14.00;74.90
17697;DHT22;8967;47.984;7.842;2023-05-17T11:48:11;14.00;75.20
17697;DHT22;8967;47.984;7.842;2023-05-17T11:50:38;14.00;75.30
17697;DHT22;8967;47.984;7.842;2023-05-17T11:53:05;14.00;74.70
17697;DHT22;8967;47.984;7.842;2023-05-17T11:55:36;14.00;74.60
17697;DHT22;8967;47.984;7.842;2023-05-17T11:58:04;14.00;75.10
17697;DHT22;8967;47.984;7.842;2023-05-17T12:00:32;14.10;76.10
17697;DHT22;8967;47.984;7.842;2023-05-17T12:03:15;14.10;78.80
17697;DHT22;8967;47.984;7.842;2023-05-17T12:05:42;14.10;79.90
17697;DHT22;8967;47.984;7.842;2023-05-17T12:08:09;14.20;80.50
17697;DHT22;8967;47.984;7.842;2023-05-17T12:10:36;14.10;80.10
17697;DHT22;8967;47.984;7.842;2023-05-17T12:13:03;14.20;80.80
17697;DHT22;8967;47.984;7.842;2023-05-17T12:15:33;14.20;81.00
17697;DHT22;8967;47.984;7.842;2023-05-17T12:18:00;14.20;81.30
17697;DHT22;8967;47.984;7.842;2023-05-17T12:20:30;14.20;81.90
17697;DHT22;8967;47.984;7.842;2023-05-17T12:22:59;14.30;82.00
17697;DHT22;8967;47.984;7.842;2023-05-17T12:25:26;14.30;82.30
17697;DHT22;8967;47.984;7.842;2023-05-17T12:28:11;14.30;81.60
17697;DHT22;8967;47.984;7.842;2023-05-17T12:30:39;14.30;81.80
17697;DHT22;8967;47.984;7.842;2023-05-17T12:33:06;14.40;82.00
17697;DHT22;8967;47.984;7.842;2023-05-17T12:35:35;14.30;82.00
17697;DHT22;8967;47.984;7.842;2023-05-17T12:38:02;14.30;81.10
17697;DHT22;8967;47.984;7.842;2023-05-17T12:40:31;14.30;77.40
17697;DHT22;8967;47.984;7.842;2023-05-17T12:43:01;14.30;75.70
17697;DHT22;8967;47.984;7.842;2023-05-17T12:45:29;14.30;76.90
17697;DHT22;8967;47.984;7.842;2023-05-17T12:47:55;14.30;78.90
17697;DHT22;8967;47.984;7.842;2023-05-17T12:50:27;14.40;80.00
17697;DHT22;8967;47.984;7.842;2023-05-17T12:52:56;14.40;79.70
17697;DHT22;8967;47.984;7.842;2023-05-17T12:55:23;14.40;77.10
17697;DHT22;8967;47.984;7.842;2023-05-17T12:57:51;14.50;77.20
17697;DHT22;8967;47.984;7.842;2023-05-17T13:00:18;14.50;75.90
17697;DHT22;8967;47.984;7.842;2023-05-17T13:02:46;14.60;77.70
17697;DHT22;8967;47.984;7.842;2023-05-17T13:05:14;14.60;78.80
17697;DHT22;8967;47.984;7.842;2023-05-17T13:07:41;14.60;78.80
17697;DHT22;8967;47.984;7.842;2023-05-17T13:10:21;14.50;76.70
17697;DHT22;8967;47.984;7.842;2023-05-17T13:12:55;14.50;75.80
17697;DHT22;8967;47.984;7.842;2023-05-17T13:15:29;14.50;73.90
17697;DHT22;8967;47.984;7.842;2023-05-17T13:17:56;14.50;74.40
17697;DHT22;8967;47.984;7.842;2023-05-17T13:20:25;14.50;73.10
17697;DHT22;8967;47.984;7.842;2023-05-17T13:22:52;14.50;73.10
17697;DHT22;8967;47.984;7.842;2023-05-17T13:25:23;14.50;74.90
17697;DHT22;8967;47.984;7.842;2023-05-17T13:27:50;14.50;75.60
17697;DHT22;8967;47.984;7.842;2023-05-17T13:30:17;14.60;75.50
17697;DHT22;8967;47.984;7.842;2023-05-17T13:32:46;14.60;75.10
17697;DHT22;8967;47.984;7.842;2023-05-17T13:35:13;14.60;75.30
17697;DHT22;8967;47.984;7.842;2023-05-17T13:37:40;14.60;73.80
17697;DHT22;8967;47.984;7.842;2023-05-17T13:40:08;14.60;74.10
17697;DHT22;8967;47.984;7.842;2023-05-17T13:42:36;14.60;72.80
17697;DHT22;8967;47.984;7.842;2023-05-17T13:45:04;14.60;72.80
17697;DHT22;8967;47.984;7.842;2023-05-17T13:47:33;14.60;73.60
17697;DHT22;8967;47.984;7.842;2023-05-17T13:50:00;14.70;74.80
17697;DHT22;8967;47.984;7.842;2023-05-17T13:52:28;14.70;76.70
17697;DHT22;8967;47.984;7.842;2023-05-17T13:54:55;14.80;77.50
17697;DHT22;8967;47.984;7.842;2023-05-17T13:57:25;14.80;78.40
17697;DHT22;8967;47.984;7.842;2023-05-17T13:59:53;14.90;78.90
17697;DHT22;8967;47.984;7.842;2023-05-17T14:02:22;14.90;79.60
17697;DHT22;8967;47.984;7.842;2023-05-17T14:04:49;15.00;79.50
17697;DHT22;8967;47.984;7.842;2023-05-17T14:07:16;15.00;78.30
17697;DHT22;8967;47.984;7.842;2023-05-17T14:09:45;14.90;79.00
17697;DHT22;8967;47.984;7.842;2023-05-17T14:12:11;14.90;79.40
17697;DHT22;8967;47.984;7.842;2023-05-17T14:14:38;14.90;79.50
17697;DHT22;8967;47.984;7.842;2023-05-17T14:17:07;14.90;79.50
17697;DHT22;8967;47.984;7.842;2023-05-17T14:19:33;14.90;80.00
17697;DHT22;8967;47.984;7.842;2023-05-17T14:22:00;14.90;80.00
17697;DHT22;8967;47.984;7.842;2023-05-17T14:24:27;14.90;80.30
17697;DHT22;8967;47.984;7.842;2023-05-17T14:26:54;14.90;80.90
17697;DHT22;8967;47.984;7.842;2023-05-17T14:29:22;14.90;81.20
17697;DHT22;8967;47.984;7.842;2023-05-17T14:31:49;14.90;81.50
17697;DHT22;8967;47.984;7.842;2023-05-17T14:34:17;14.90;82.50
17697;DHT22;8967;47.984;7.842;2023-05-17T14:36:44;14.90;81.80
17697;DHT22;8967;47.984;7.842;2023-05-17T14:39:13;14.90;81.80
17697;DHT22;8967;47.984;7.842;2023-05-17T14:41:40;14.90;81.80
17697;DHT22;8967;47.984;7.842;2023-05-17T14:44:07;15.00;81.80
17697;DHT22;8967;47.984;7.842;2023-05-17T14:46:34;14.90;80.90
17697;DHT22;8967;47.984;7.842;2023-05-17T14:49:03;14.90;80.00
17697;DHT22;8967;47.984;7.842;2023-05-17T14:51:32;14.90;80.30
17697;DHT22;8967;47.984;7.842;2023-05-17T14:53:59;14.90;80.80
17697;DHT22;8967;47.984;7.842;2023-05-17T14:56:26;14.90;81.20
17697;DHT22;8967;47.984;7.842;2023-05-17T14:58:53;14.90;80.90
17697;DHT22;8967;47.984;7.842;2023-05-17T15:01:20;14.90;81.00
17697;DHT22;8967;47.984;7.842;2023-05-17T15:03:47;14.80;80.50
17697;DHT22;8967;47.984;7.842;2023-05-17T15:06:16;14.80;80.30
17697;DHT22;8967;47.984;7.842;2023-05-17T15:08:51;14.80;80.90
17697;DHT22;8967;47.984;7.842;2023-05-17T15:11:17;14.80;81.50
17697;DHT22;8967;47.984;7.842;2023-05-17T15:13:44;14.70;81.60
17697;DHT22;8967;47.984;7.842;2023-05-17T15:16:12;14.80;82.00
17697;DHT22;8967;47.984;7.842;2023-05-17T15:18:41;14.80;82.50
17697;DHT22;8967;47.984;7.842;2023-05-17T15:21:09;14.80;82.30
17697;DHT22;8967;47.984;7.842;2023-05-17T15:23:36;14.90;82.20
17697;DHT22;8967;47.984;7.842;2023-05-17T15:26:04;15.00;81.80
17697;DHT22;8967;47.984;7.842;2023-05-17T15:28:33;15.00;81.80
17697;DHT22;8967;47.984;7.842;2023-05-17T15:31:01;15.00;81.50
17697;DHT22;8967;47.984;7.842;2023-05-17T15:33:30;15.00;81.80
17697;DHT22;8967;47.984;7.842;2023-05-17T15:35:57;15.00;81.20
17697;DHT22;8967;47.984;7.842;2023-05-17T15:38:26;14.90;81.20
17697;DHT22;8967;47.984;7.842;2023-05-17T15:41:01;15.00;81.80
17697;DHT22;8967;47.984;7.842;2023-05-17T15:43:31;15.00;81.10
17697;DHT22;8967;47.984;7.842;2023-05-17T15:45:59;15.00;80.60
17697;DHT22;8967;47.984;7.842;2023-05-17T15:48:28;15.00;81.10
17697;DHT22;8967;47.984;7.842;2023-05-17T15:50:55;15.00;80.90
17697;DHT22;8967;47.984;7.842;2023-05-17T15:53:22;15.00;80.70
17697;DHT22;8967;47.984;7.842;2023-05-17T15:55:50;15.00;80.60
17697;DHT22;8967;47.984;7.842;2023-05-17T15:58:17;15.00;79.70
17697;DHT22;8967;47.984;7.842;2023-05-17T16:00:45;15.00;76.90
17697;DHT22;8967;47.984;7.842;2023-05-17T16:03:12;15.00;76.10